首页
METAR-TAF:

METAR-TAF

机场 :

摩押, 犹他州, 美国

纬度: 38-45-36N, 经度: 109-44-41W, 海拔: 1388米

当前天气观测

该预报发布于35分钟前的23:53 UTC
风速10节,风向南转西南,有时为17节阵风
温度 38°C
湿度 6%
气压 1013 hPa
能見度: 16.1公里
天空无云

METAR: KCNY 122353Z AUTO 20010G17KT 10SM CLR 38/M05 A2991 RMK AO2 PK WND 26028/2320 SLP058 T03831050 10394 20344 56011

时间: 18:28 (00:28 UTC)

预报

该预报发布于1小时和8分钟前的23:20 UTC
预报有效从13日的 00点(UTC)到 13日的 24点(UTC)
风速10节,风向西转西南,有时为18节阵风
能見度: 10公里
天空无云
从 13日的 0100点(UTC)
风速10节,风向西南
能見度: 10公里
少量云层高于12000英尺
从 13日的 0600点(UTC)
风速5节,风向西转西南
能見度: 10公里
天空无云
从 13日的 1300点(UTC)
风速3节,风向南转南东
能見度: 10公里
天空无云
从 13日的 1800点(UTC)
风速16节,风向西南,有时为26节阵风
能見度: 10公里
散云层高于25000英尺

TAF: KCNY 122320Z 1300/1324 24010G18KT P6SM SKC FM130100 23010KT P6SM FEW120 FM130600 25005KT P6SM SKC FM131300 15003KT P6SM SKC FM131800 23016G26KT P6SM SCT250

超过4000个机场的气象观测和天气预报(METAR&TAF报告)。

可查询的气象台以黄色和红色小点在地图上表示。

将鼠标移到小点上方,可查看气象台名称。

然后点击查看天气观测和预报。

如需切换地图:点击带黑十字的绿色按钮放大地图;点击带横线的绿色按钮缩小地图;或者点击绿色箭头查看邻近地区的地图。


METAR-TAF: